This is the latest recevied weather packets stored in our database for station/object TA5KA. If no packets are shown the sender has not sent any weather packets the latest 1 day(s).
| Time | Temp. | Humidity | Pressure | Rain* | Wind** | Luminosity | Snow |
|---|---|---|---|---|---|---|---|
| 1778063010 | 13.89° C | 55% | 1017 hPa | 0 mm | - | - | - |
| 1778062931 | 13.89° C | 55% | 1017 hPa | 0 mm | - | - | - |
| 1778062330 | 12.78° C | 57% | 1016 hPa | 0 mm | - | - | - |
| 1778061728 | 14.44° C | 55% | 1017 hPa | 0 mm | - | - | - |
| 1778061206 | 14.44° C | 55% | 1017 hPa | 0 mm | - | - | - |
| 1778060525 | 13.33° C | 62% | 1017 hPa | 0 mm | - | - | - |
| 1778060003 | 12.22° C | 67% | 1017 hPa | 0 mm | - | - | - |
| 1778059322 | 12.22° C | 71% | 1017 hPa | 0 mm | - | - | - |
| 1778058800 | 12.22° C | 71% | 1017 hPa | 0 mm | - | - | - |
| 1778058199 | 12.22° C | 71% | 1017 hPa | 0 mm | - | - | - |
| 1778058119 | 12.22° C | 71% | 1017 hPa | 0 mm | - | - | - |
| 1778057597 | 12.22° C | 71% | 1017 hPa | 0 mm | - | - | - |
| 1778056996 | 12.22° C | 71% | 1017 hPa | 0 mm | - | - | - |
| 1778056395 | 12.22° C | 67% | 1017 hPa | 0 mm | - | - | - |
| 1778055793 | 11.67° C | 76% | 1017 hPa | 0 mm | - | - | - |
| 1778055713 | 11.67° C | 76% | 1017 hPa | 0 mm | - | - | - |
| 1778054591 | 11.11° C | 76% | 1017 hPa | 0 mm | - | - | - |
| 1778054510 | 11.11° C | 76% | 1017 hPa | 0 mm | - | - | - |
| 1778053989 | 11.11° C | 76% | 1017 hPa | 0 mm | - | - | - |
| 1778053908 | 11.11° C | 76% | 1017 hPa | 0 mm | - | - | - |
| 1778053388 | 11.11° C | 76% | 1017 hPa | 0 mm | - | - | - |
| 1778053307 | 11.11° C | 76% | 1017 hPa | 0 mm | - | - | - |
| 1778052786 | 11.11° C | 76% | 1017 hPa | 0 mm | - | - | - |
| 1778052185 | 10° C | 82% | 1017 hPa | 0 mm | - | - | - |
| 1778052105 | 10° C | 82% | 1017 hPa | 0 mm | - | - | - |
* Rain latest hour (hover to see other rain measurements)
** Current wind speed in m/s (hover to see current wind gust speed)